Time;durP1;ratioP1;P1;durP2;ratioP2;P2;SDS_P1;SDS_P2;PMS_P1;PMS_P2;Temp;Humidity;BMP_temperature;BMP_pressure;BME280_temperature;BME280_humidity;BME280_pressure;Samples;Min_cycle;Max_cycle;Signal;HPM_P1;HPM_P2
2024/04/18 05:19:24;;;;;;;9.65;1.80;;;;;;;7.37;76.38;99833.22;5012890;23;20417;-87
2024/04/18 05:21:51;;;;;;;7.65;1.90;;;;;;;7.41;76.36;99837.41;5052124;28;20011;-87
2024/04/18 05:24:18;;;;;;;7.75;2.72;;;;;;;7.48;76.40;99838.00;5048967;28;20047;-87
2024/04/18 05:26:45;;;;;;;5.65;2.00;;;;;;;7.53;76.68;99846.56;5050885;28;20023;-87
2024/04/18 05:31:59;;;;;;;3.92;2.17;;;;;;;7.64;76.27;99855.69;5051462;28;20023;-86
2024/04/18 05:34:28;;;;;;;7.03;2.25;;;;;;;7.68;75.96;99863.38;5049427;28;20106;-87
2024/04/18 05:36:55;;;;;;;5.47;1.70;;;;;;;7.73;75.50;99865.78;5049537;28;20047;-87
2024/04/18 05:39:22;;;;;;;5.97;2.22;;;;;;;7.77;75.46;99871.72;5048865;28;20023;-87
2024/04/18 05:41:49;;;;;;;9.32;2.50;;;;;;;7.79;75.62;99876.00;5046248;28;20007;-86
2024/04/18 05:44:16;;;;;;;4.70;2.45;;;;;;;7.82;75.93;99862.75;5048494;28;20026;-86
2024/04/18 05:46:42;;;;;;;6.47;1.85;;;;;;;7.88;75.95;99871.25;5048338;28;20012;-87
2024/04/18 05:49:09;;;;;;;5.10;2.75;;;;;;;7.90;76.11;99878.16;5046610;28;20011;-87
2024/04/18 05:51:36;;;;;;;5.40;1.92;;;;;;;7.97;75.78;99872.63;5050125;28;20026;-87
2024/04/18 05:54:02;;;;;;;5.50;1.98;;;;;;;8.03;75.88;99881.06;5049275;28;20015;-88
2024/04/18 05:56:29;;;;;;;5.00;2.08;;;;;;;8.08;76.12;99875.63;5049175;28;20007;-88
2024/04/18 05:58:56;;;;;;;5.35;2.17;;;;;;;8.16;76.09;99885.78;5049650;28;20088;-87
2024/04/18 06:01:23;;;;;;;5.22;2.20;;;;;;;8.21;76.12;99884.66;5049371;28;20072;-87
2024/04/18 06:03:49;;;;;;;10.50;2.50;;;;;;;8.27;75.67;99880.03;5049663;28;20015;-87
2024/04/18 06:06:16;;;;;;;8.75;2.60;;;;;;;8.32;75.58;99880.69;5051595;28;20092;-87
2024/04/18 06:08:43;;;;;;;7.90;2.05;;;;;;;8.38;75.33;99893.53;5050843;28;20026;-87
2024/04/18 06:11:10;;;;;;;6.15;2.33;;;;;;;8.42;75.45;99889.00;5050247;28;20336;-87
2024/04/18 06:13:38;;;;;;;4.65;2.40;;;;;;;8.46;75.33;99896.63;5051270;28;20023;-87
2024/04/18 06:16:05;;;;;;;7.22;2.33;;;;;;;8.50;75.09;99893.88;5049435;28;20011;-86
2024/04/18 06:18:32;;;;;;;5.97;1.80;;;;;;;8.55;75.27;99899.78;5048987;28;20370;-86
2024/04/18 06:21:00;;;;;;;6.88;2.63;;;;;;;8.60;75.42;99895.19;5049227;28;20528;-86
2024/04/18 06:23:27;;;;;;;5.22;2.15;;;;;;;8.63;75.30;99900.28;5049399;28;20011;-86
2024/04/18 06:25:54;;;;;;;9.00;2.38;;;;;;;8.70;75.15;99906.97;5048699;28;20022;-87
2024/04/18 06:28:20;;;;;;;6.38;1.75;;;;;;;8.73;75.07;99905.97;5047200;28;20004;-86
2024/04/18 06:30:47;;;;;;;5.57;2.47;;;;;;;8.77;75.17;99910.13;5046744;28;20003;-86
2024/04/18 06:33:14;;;;;;;5.88;2.42;;;;;;;8.82;74.79;99908.16;5048517;28;20017;-87
2024/04/18 06:35:41;;;;;;;7.63;2.30;;;;;;;8.84;74.83;99914.19;5048737;28;19999;-86
2024/04/18 06:38:08;;;;;;;7.07;2.10;;;;;;;8.88;74.60;99914.03;5052796;28;20352;-87
2024/04/18 06:40:35;;;;;;;10.70;2.67;;;;;;;8.91;74.42;99916.50;5052833;28;20007;-87
2024/04/18 06:43:02;;;;;;;5.75;2.10;;;;;;;8.92;74.40;99916.44;5053823;28;20030;-88
2024/04/18 06:45:28;;;;;;;17.00;2.72;;;;;;;8.94;74.23;99919.81;5053257;28;20362;-86
2024/04/18 06:47:55;;;;;;;7.75;2.35;;;;;;;8.95;74.15;99918.94;5054964;28;20026;-86
2024/04/18 06:50:22;;;;;;;5.82;1.73;;;;;;;8.97;74.05;99922.31;5053767;28;20088;-87
2024/04/18 06:52:52;;;;;;;5.95;2.10;;;;;;;8.97;73.74;99922.31;5055072;28;20417;-87
2024/04/18 06:55:21;;;;;;;8.20;2.20;;;;;;;8.98;73.95;99924.00;5052749;28;20003;-87
2024/04/18 06:57:48;;;;;;;6.43;2.00;;;;;;;8.98;74.10;99924.00;5052970;28;20011;-87
2024/04/18 07:00:15;;;;;;;6.80;2.05;;;;;;;8.99;73.98;99925.75;5052896;28;20055;-85
2024/04/18 07:02:43;;;;;;;10.77;2.20;;;;;;;9.01;73.71;99924.81;5054006;28;20027;-86
2024/04/18 07:05:10;;;;;;;4.68;1.98;;;;;;;9.04;74.15;99937.78;5053581;28;20007;-86
2024/04/18 07:07:37;;;;;;;4.20;1.73;;;;;;;9.05;74.29;99937.69;5052522;28;20016;-86
2024/04/18 07:10:05;;;;;;;4.22;2.03;;;;;;;9.08;74.00;99934.09;5052146;28;20402;-86
2024/04/18 07:12:32;;;;;;;5.85;1.65;;;;;;;9.11;74.19;99939.19;5052224;28;20015;-86
2024/04/18 07:14:59;;;;;;;6.90;1.98;;;;;;;9.16;74.05;99938.97;5052824;28;20007;-86
2024/04/18 07:17:26;;;;;;;4.68;1.90;;;;;;;9.20;74.26;99951.03;5053194;28;20026;-86
2024/04/18 07:19:52;;;;;;;7.63;2.33;;;;;;;9.22;74.46;99936.91;5052539;28;20017;-86
2024/04/18 07:22:19;;;;;;;8.00;1.98;;;;;;;9.27;74.66;99941.09;5054441;28;20373;-86
2024/04/18 07:24:46;;;;;;;5.05;1.80;;;;;;;9.33;74.88;99943.41;5054910;28;20026;-86
2024/04/18 07:27:13;;;;;;;5.65;2.10;;;;;;;9.39;74.82;99948.38;5055186;28;20019;-86
2024/04/18 07:29:39;;;;;;;4.75;1.80;;;;;;;9.46;75.08;99948.91;5052444;28;20473;-86
2024/04/18 07:32:07;;;;;;;7.88;2.05;;;;;;;9.54;75.36;99951.16;5077663;28;20027;-86
2024/04/18 07:34:34;;;;;;;7.10;2.47;;;;;;;9.64;75.44;99955.88;5078522;28;20011;-86
2024/04/18 07:37:01;;;;;;;4.05;1.67;;;;;;;9.73;75.24;99951.09;5053578;28;20026;-86
2024/04/18 07:39:28;;;;;;;3.65;1.80;;;;;;;9.81;74.44;99948.94;5053624;28;20592;-87
2024/04/18 07:41:55;;;;;;;4.78;1.95;;;;;;;9.90;74.91;99958.09;5055948;28;20088;-87
2024/04/18 07:44:28;;;;;;;6.03;1.95;;;;;;;9.96;72.34;99963.06;5053936;28;20004;-87
2024/04/18 07:46:55;;;;;;;;;;;;;;;10.06;71.69;99967.84;5055004;28;20461;-86
2024/04/18 07:49:21;;;;;;;2.92;1.50;;;;;;;10.17;74.74;99963.72;5051952;28;19941;-87
2024/04/18 07:51:48;;;;;;;4.88;1.70;;;;;;;10.22;74.52;99968.75;5053922;28;20519;-88
2024/04/18 07:54:16;;;;;;;6.72;2.08;;;;;;;10.25;74.31;99968.59;5052764;28;20023;-87
2024/04/18 07:56:42;;;;;;;8.60;2.17;;;;;;;10.29;74.50;99972.75;5051797;28;20007;-86
2024/04/18 07:59:10;;;;;;;6.40;1.85;;;;;;;10.33;74.24;99972.59;5077856;28;20015;-86
2024/04/18 08:01:39;;;;;;;7.20;1.85;;;;;;;10.39;74.46;99982.81;5050019;28;20003;-86
2024/04/18 08:04:08;;;;;;;5.45;1.73;;;;;;;10.46;74.15;99989.47;5050724;28;20024;-86
2024/04/18 08:06:55;;;;;;;5.15;1.98;;;;;;;10.52;74.31;99989.16;5052138;28;20039;-87
2024/04/18 08:09:25;;;;;;;5.40;1.73;;;;;;;10.58;74.03;99989.75;5051814;28;20023;-87
2024/04/18 08:11:57;;;;;;;6.13;1.60;;;;;;;10.66;74.11;100001.56;5050624;28;20008;-87
2024/04/18 08:14:26;;;;;;;4.20;1.50;;;;;;;10.73;73.38;99996.00;5050557;28;20459;-87
2024/04/18 08:17:01;;;;;;;4.50;1.75;;;;;;;10.79;73.56;99999.16;5050776;28;20011;-87
2024/04/18 08:19:28;;;;;;;6.75;1.60;;;;;;;10.86;73.14;99998.78;5050637;28;20088;-87
2024/04/18 08:21:54;;;;;;;8.30;1.83;;;;;;;10.90;72.90;100002.97;5050570;28;20026;-87
2024/04/18 08:24:27;;;;;;;5.18;1.60;;;;;;;10.95;73.02;100009.69;5050881;28;20065;-87
2024/04/18 08:26:54;;;;;;;3.85;1.58;;;;;;;11.02;73.12;100009.34;5051409;28;20043;-87
2024/04/18 08:29:22;;;;;;;6.43;1.90;;;;;;;11.06;73.51;100005.59;5050114;28;20111;-87
2024/04/18 08:31:50;;;;;;;4.72;1.50;;;;;;;11.13;73.13;100020.16;5049650;28;20023;-87
2024/04/18 08:34:17;;;;;;;8.90;2.00;;;;;;;11.21;73.47;100020.56;5050568;28;20047;-87
2024/04/18 08:36:49;;;;;;;5.10;1.80;;;;;;;11.24;71.65;100019.56;5051510;28;20011;-87
2024/04/18 08:39:18;;;;;;;5.20;1.30;;;;;;;11.33;73.20;100016.41;5050673;28;20012;-86
2024/04/18 08:41:45;;;;;;;2.67;1.10;;;;;;;11.41;72.43;100021.25;5050001;28;20039;-86
2024/04/18 08:44:14;;;;;;;5.28;1.30;;;;;;;11.46;71.52;100018.34;5100963;28;20508;-86
2024/04/18 08:46:44;;;;;;;5.57;1.65;;;;;;;11.53;70.49;100018.84;5050650;28;20027;-86
2024/04/18 08:49:13;;;;;;;4.20;1.38;;;;;;;11.60;71.80;100012.31;5048848;28;20007;-86
2024/04/18 08:51:41;;;;;;;8.43;1.90;;;;;;;11.67;72.78;100016.25;5049112;28;20343;-86
2024/04/18 08:54:08;;;;;;;4.78;1.48;;;;;;;11.76;72.81;100025.44;5048777;28;20545;-87
2024/04/18 08:56:35;;;;;;;3.45;1.35;;;;;;;11.88;73.05;100026.50;5048666;28;20015;-86
2024/04/18 08:59:02;;;;;;;5.30;1.58;;;;;;;12.01;73.42;100017.88;5050639;28;20007;-86
2024/04/18 09:01:28;;;;;;;4.22;1.40;;;;;;;12.16;73.28;100024.06;5050469;28;20011;-87
2024/04/18 09:03:56;;;;;;;4.57;1.85;;;;;;;12.30;73.15;100023.25;5050961;28;20007;-87
2024/04/18 09:06:24;;;;;;;5.32;1.73;;;;;;;12.48;73.62;100019.50;5049127;28;20015;-87
2024/04/18 09:08:55;;;;;;;7.57;1.77;;;;;;;12.64;70.97;100029.97;5050212;28;20011;-86
2024/04/18 09:11:22;;;;;;;6.93;2.05;;;;;;;12.82;72.30;100024.50;5099750;28;20011;-87
2024/04/18 09:13:48;;;;;;;5.88;1.50;;;;;;;12.94;71.85;100019.41;5048431;28;20026;-86
2024/04/18 09:16:15;;;;;;;3.40;1.45;;;;;;;13.03;71.38;100018.81;5050193;28;20022;-86
2024/04/18 09:18:42;;;;;;;5.15;1.65;;;;;;;13.12;70.10;100027.97;5050306;28;20019;-86
2024/04/18 09:21:10;;;;;;;3.60;1.40;;;;;;;13.16;68.76;100027.66;5049429;28;20015;-86
2024/04/18 09:23:39;;;;;;;7.07;1.35;;;;;;;13.19;68.93;100028.41;5099725;28;20370;-86
2024/04/18 09:26:06;;;;;;;6.30;1.67;;;;;;;13.24;70.91;100026.31;5048221;28;20007;-86
2024/04/18 09:28:33;;;;;;;3.63;1.35;;;;;;;13.32;71.37;100018.75;5049720;28;20467;-86
2024/04/18 09:31:02;;;;;;;9.75;2.13;;;;;;;13.42;70.77;100027.78;5099355;28;20022;-86
2024/04/18 09:33:35;;;;;;;5.40;1.25;;;;;;;13.57;70.63;100027.75;5049505;28;20011;-86
2024/04/18 09:36:03;;;;;;;5.10;1.45;;;;;;;13.68;69.94;100040.28;5022376;28;20022;-86
2024/04/18 09:38:34;;;;;;;3.97;1.20;;;;;;;13.81;70.35;100040.34;5100055;28;20500;-87
2024/04/18 09:41:09;;;;;;;5.35;1.70;;;;;;;13.91;68.48;100033.47;5049252;28;20039;-86
2024/04/18 09:43:40;;;;;;;7.32;1.55;;;;;;;14.04;65.79;100043.22;5047311;28;20022;-87
2024/04/18 09:46:09;;;;;;;7.43;1.23;;;;;;;14.15;66.94;100037.22;5047656;28;20347;-86
2024/04/18 09:48:36;;;;;;;4.03;1.30;;;;;;;14.23;67.62;100036.69;5048769;28;20019;-87
2024/04/18 09:51:05;;;;;;;8.13;1.42;;;;;;;14.26;66.12;100033.84;5047250;28;20347;-86
2024/04/18 09:53:32;;;;;;;3.40;1.08;;;;;;;14.31;67.80;100032.56;5049434;28;20011;-87
2024/04/18 09:56:00;;;;;;;4.85;1.40;;;;;;;14.36;67.59;100031.41;5047663;28;20015;-86
2024/04/18 09:58:27;;;;;;;4.57;1.25;;;;;;;14.41;66.94;100030.16;5048703;28;20011;-87
2024/04/18 10:00:57;;;;;;;4.32;1.40;;;;;;;14.45;63.18;100030.78;5047303;28;20011;-86
2024/04/18 10:03:24;;;;;;;3.58;1.20;;;;;;;14.51;66.39;100029.50;5099560;28;20026;-87
2024/04/18 10:05:54;;;;;;;4.70;1.33;;;;;;;14.56;65.95;100028.25;5048492;28;20077;-88
2024/04/18 10:08:27;;;;;;;2.40;0.98;;;;;;;14.62;64.00;100032.28;5046687;28;20007;-87
2024/04/18 10:10:54;;;;;;;2.92;1.02;;;;;;;14.65;64.11;100037.34;5099071;28;20475;-87
2024/04/18 10:13:23;;;;;;;3.20;0.85;;;;;;;14.60;63.24;100042.13;5050029;28;20051;-86
2024/04/18 10:16:12;;;;;;;3.60;1.00;;;;;;;14.45;59.10;100041.38;5101477;28;20102;-87
2024/04/18 10:18:40;;;;;;;3.85;1.00;;;;;;;14.39;62.95;100036.50;5049996;28;20003;-86
2024/04/18 10:21:14;;;;;;;2.38;1.00;;;;;;;14.30;60.02;100040.63;5051446;28;20026;-86
2024/04/18 10:23:50;;;;;;;3.85;1.00;;;;;;;14.32;59.84;100036.09;5050530;28;20015;-87
2024/04/18 10:26:19;;;;;;;3.65;1.05;;;;;;;14.41;65.25;100031.94;5052081;28;20007;-86
2024/04/18 10:28:47;;;;;;;4.63;1.23;;;;;;;14.51;65.88;100035.66;5102005;28;20011;-86
2024/04/18 10:31:15;;;;;;;4.07;1.35;;;;;;;14.67;65.69;100042.53;5049285;28;20022;-87
2024/04/18 10:33:43;;;;;;;3.13;1.17;;;;;;;14.79;65.10;100043.50;5049659;28;20035;-87
2024/04/18 10:36:14;;;;;;;7.65;1.17;;;;;;;14.87;61.04;100048.28;5049786;28;20019;-86
2024/04/18 10:38:45;;;;;;;3.05;0.80;;;;;;;14.89;60.29;100041.91;5051498;28;20023;-86
2024/04/18 10:41:17;;;;;;;4.65;1.10;;;;;;;14.91;59.59;100050.59;5051008;28;20011;-87
2024/04/18 10:43:45;;;;;;;4.53;1.38;;;;;;;14.93;62.86;100051.34;5050217;28;20016;-87
2024/04/18 10:46:13;;;;;;;4.13;1.48;;;;;;;14.93;62.76;100043.41;5049466;28;20018;-86
2024/04/18 10:48:41;;;;;;;5.13;1.20;;;;;;;14.96;63.76;100043.16;5050561;28;20007;-87
2024/04/18 10:51:08;;;;;;;2.22;1.10;;;;;;;15.11;64.91;100045.69;5050748;28;20011;-87
2024/04/18 10:53:36;;;;;;;4.20;0.95;;;;;;;15.29;64.90;100042.66;5050935;28;20069;-86
2024/04/18 10:56:03;;;;;;;3.40;1.00;;;;;;;15.49;64.94;100047.38;5051041;28;20011;-86
2024/04/18 10:58:30;;;;;;;4.35;1.30;;;;;;;15.67;63.25;100049.63;5051225;28;20010;-86
2024/04/18 11:00:59;;;;;;;3.40;1.00;;;;;;;15.75;62.10;100044.56;5051036;28;20011;-86
2024/04/18 11:03:29;;;;;;;4.28;1.00;;;;;;;15.78;57.76;100051.50;5051187;28;20357;-86
2024/04/18 11:05:59;;;;;;;3.13;1.08;;;;;;;15.78;60.19;100048.84;5049293;28;20487;-86
2024/04/18 11:08:29;;;;;;;2.85;1.08;;;;;;;15.69;58.44;100046.84;5050315;28;22370;-86
2024/04/18 11:11:02;;;;;;;4.57;1.40;;;;;;;15.74;63.42;100050.84;5048370;28;20021;-86
2024/04/18 11:13:29;;;;;;;4.45;1.52;;;;;;;15.93;64.93;100052.16;5048931;28;20011;-86
2024/04/18 11:15:55;;;;;;;3.28;1.15;;;;;;;16.13;63.04;100049.81;5048804;28;20019;-86
2024/04/18 11:18:22;;;;;;;1.77;0.80;;;;;;;16.27;60.68;100044.28;5050271;28;20015;-86
2024/04/18 11:20:49;;;;;;;2.97;0.90;;;;;;;16.33;58.98;100045.63;5050516;28;20360;-86
2024/04/18 11:23:15;;;;;;;3.35;1.20;;;;;;;16.30;58.08;100047.69;5049215;28;20022;-86
2024/04/18 11:25:42;;;;;;;2.10;0.75;;;;;;;16.23;58.12;100047.31;5050340;28;20015;-86
2024/04/18 11:28:09;;;;;;;5.07;1.52;;;;;;;16.17;60.05;100042.47;5050494;28;20532;-86
2024/04/18 11:30:40;;;;;;;4.53;0.98;;;;;;;16.28;60.02;100042.50;5049827;28;20022;-86
2024/04/18 11:33:13;;;;;;;3.15;1.05;;;;;;;16.69;63.13;100045.56;5074580;28;20087;-86
2024/04/18 11:35:40;;;;;;;4.53;1.48;;;;;;;17.28;67.56;100032.97;5049005;28;20007;-86
2024/04/18 11:38:08;;;;;;;3.17;0.93;;;;;;;17.97;69.54;100038.03;5050081;28;20040;-86
2024/04/18 11:40:36;;;;;;;3.15;1.10;;;;;;;18.69;66.65;100032.88;5048295;28;20018;-86
2024/04/18 11:43:03;;;;;;;6.13;1.10;;;;;;;19.43;65.80;100030.03;5048471;28;20023;-86
2024/04/18 11:45:30;;;;;;;4.00;1.13;;;;;;;20.14;66.25;100030.75;5050147;28;20029;-86
2024/04/18 11:47:57;;;;;;;3.33;1.00;;;;;;;20.83;63.78;100038.53;5048052;28;20361;-86
2024/04/18 11:50:27;;;;;;;3.17;1.17;;;;;;;21.31;59.81;100040.31;5047606;28;20007;-87
2024/04/18 11:52:54;;;;;;;3.42;1.00;;;;;;;21.53;55.74;100039.00;5050304;28;20479;-87
2024/04/18 11:55:22;;;;;;;2.75;1.30;;;;;;;21.45;51.68;100034.44;5022623;28;20070;-87
2024/04/18 11:57:49;;;;;;;1.88;0.85;;;;;;;21.20;51.21;100047.53;5049928;28;20410;-87
2024/04/18 12:00:16;;;;;;;5.75;1.25;;;;;;;20.96;52.22;100040.91;5047902;28;20015;-87
2024/04/18 12:02:43;;;;;;;3.03;1.13;;;;;;;20.86;53.97;100040.06;5048249;28;20011;-86
2024/04/18 12:05:09;;;;;;;6.13;1.08;;;;;;;20.93;56.24;100033.19;5048155;28;20355;-86
2024/04/18 12:07:36;;;;;;;1.33;0.73;;;;;;;21.19;57.42;100034.31;5048177;28;20011;-87
2024/04/18 12:10:03;;;;;;;4.30;1.00;;;;;;;21.48;55.83;100020.75;5048046;28;20011;-87
2024/04/18 12:12:30;;;;;;;2.22;1.10;;;;;;;21.76;56.17;100019.84;5048254;28;20025;-87
2024/04/18 12:14:57;;;;;;;3.58;1.30;;;;;;;21.93;54.02;100020.81;5049999;28;20408;-87
2024/04/18 12:17:24;;;;;;;3.10;1.00;;;;;;;21.96;51.89;100027.69;5049972;28;20022;-87
2024/04/18 12:19:50;;;;;;;4.43;0.80;;;;;;;21.80;49.97;100021.22;5049223;28;20636;-86
2024/04/18 12:22:20;;;;;;;3.05;1.00;;;;;;;21.47;46.60;100026.25;5049113;28;20011;-87
2024/04/18 12:24:47;;;;;;;2.80;0.90;;;;;;;21.24;49.87;100025.84;5049454;28;20015;-86
2024/04/18 12:27:14;;;;;;;2.78;1.00;;;;;;;21.14;52.52;100026.75;5047987;28;20011;-87
2024/04/18 12:29:43;;;;;;;2.47;1.10;;;;;;;21.25;53.38;100022.16;5047741;28;20012;-87
2024/04/18 12:32:12;;;;;;;4.05;1.15;;;;;;;21.40;52.81;100015.31;5047398;28;20014;-87
2024/04/18 12:34:39;;;;;;;2.53;1.00;;;;;;;21.68;53.88;100017.88;5049234;28;20030;-87
2024/04/18 12:37:06;;;;;;;2.65;0.95;;;;;;;22.02;54.12;100013.69;5099549;28;20065;-87
2024/04/18 12:39:32;;;;;;;2.95;1.50;;;;;;;22.43;53.82;100021.13;5047533;28;20025;-87
2024/04/18 12:42:00;;;;;;;2.20;0.80;;;;;;;22.85;53.77;100024.06;5049024;28;20351;-86
2024/04/18 12:44:27;;;;;;;2.90;0.95;;;;;;;23.26;54.45;100021.53;5048042;28;20092;-87
2024/04/18 12:46:55;;;;;;;3.17;1.20;;;;;;;23.70;53.44;100016.91;5049164;28;20013;-87
2024/04/18 12:49:22;;;;;;;3.95;0.93;;;;;;;24.11;52.72;100020.59;5047274;28;20023;-87
2024/04/18 12:51:49;;;;;;;1.15;0.73;;;;;;;24.52;52.85;100015.13;5048866;28;20459;-87
2024/04/18 12:54:16;;;;;;;1.67;0.80;;;;;;;24.91;51.59;100009.97;5048846;28;20023;-87
2024/04/18 12:56:47;;;;;;;3.72;1.30;;;;;;;25.27;51.29;100006.75;5049624;28;20007;-87
2024/04/18 12:59:15;;;;;;;2.67;1.13;;;;;;;25.62;50.42;99995.56;5021745;28;20078;-87
2024/04/18 13:01:41;;;;;;;2.13;0.90;;;;;;;25.97;49.70;99990.53;5048349;28;20019;-87
2024/04/18 13:04:08;;;;;;;3.20;1.05;;;;;;;26.30;49.70;99989.41;5047532;28;20470;-87
2024/04/18 13:06:35;;;;;;;2.70;0.80;;;;;;;26.57;47.93;99987.06;5047265;28;20003;-87
2024/04/18 13:09:03;;;;;;;2.42;0.80;;;;;;;26.66;45.46;99983.22;5048615;28;20019;-87
2024/04/18 13:11:30;;;;;;;1.70;0.85;;;;;;;26.49;42.71;99976.34;5046815;28;20038;-88
2024/04/18 13:13:57;;;;;;;2.40;0.80;;;;;;;26.09;41.71;99979.31;5099428;28;20066;-87
2024/04/18 13:16:24;;;;;;;4.00;1.00;;;;;;;25.50;41.60;99974.38;5047586;28;20011;-87
2024/04/18 13:18:51;;;;;;;2.30;0.70;;;;;;;24.87;41.95;99979.88;5046469;28;20019;-87
2024/04/18 13:21:18;;;;;;;2.80;0.88;;;;;;;24.18;41.61;99981.28;5047262;28;20008;-87
2024/04/18 13:23:47;;;;;;;1.50;0.80;;;;;;;23.58;42.50;99973.38;5047549;28;20015;-87
2024/04/18 13:26:14;;;;;;;1.90;0.70;;;;;;;23.08;44.16;99975.13;5047154;28;20007;-87
2024/04/18 13:28:41;;;;;;;1.65;0.60;;;;;;;22.71;44.92;99979.88;5047328;28;20459;-86
2024/04/18 13:31:12;;;;;;;1.23;0.70;;;;;;;22.39;45.08;99979.56;5048301;28;20007;-87
2024/04/18 13:33:39;;;;;;;2.80;0.90;;;;;;;22.02;44.30;99975.31;5048765;28;20015;-87
2024/04/18 13:36:06;;;;;;;2.53;0.70;;;;;;;21.63;44.52;99976.50;5048517;28;20011;-87
2024/04/18 13:38:33;;;;;;;2.78;0.77;;;;;;;21.21;44.96;99987.69;5048662;28;20027;-86
2024/04/18 13:41:01;;;;;;;1.33;0.63;;;;;;;20.78;45.37;99983.81;5048385;28;20485;-86
2024/04/18 13:43:27;;;;;;;2.60;0.95;;;;;;;20.35;45.81;99988.78;5046643;28;20030;-86
2024/04/18 13:45:54;;;;;;;4.10;0.90;;;;;;;19.92;45.81;99992.63;5047489;28;20469;-87
2024/04/18 13:48:25;;;;;;;1.95;0.65;;;;;;;19.51;46.26;99990.13;5051236;28;20027;-86
2024/04/18 13:50:54;;;;;;;1.55;0.82;;;;;;;19.13;46.93;99987.28;5049707;28;20007;-86
2024/04/18 13:53:22;;;;;;;2.30;0.80;;;;;;;18.74;47.28;99995.16;5051219;28;20016;-86
2024/04/18 13:55:50;;;;;;;2.97;1.00;;;;;;;18.39;48.05;99991.09;5049913;28;20027;-88
2024/04/18 13:58:19;;;;;;;3.97;1.20;;;;;;;18.06;48.32;99994.63;5050892;28;20015;-87
2024/04/18 14:00:46;;;;;;;2.67;1.20;;;;;;;17.77;49.00;99987.31;5049294;28;20026;-86
2024/04/18 14:03:17;;;;;;;2.97;1.20;;;;;;;17.50;48.86;99991.31;5047427;28;20354;-86
2024/04/18 14:05:45;;;;;;;2.03;1.15;;;;;;;17.31;50.62;99987.47;5101918;28;20017;-86
2024/04/18 14:08:12;;;;;;;2.63;1.20;;;;;;;17.17;51.15;99990.44;5049840;28;20011;-87
2024/04/18 14:10:39;;;;;;;3.88;1.10;;;;;;;17.08;52.33;99988.53;5102862;27;20084;-86
2024/04/18 14:13:07;;;;;;;2.90;0.98;;;;;;;17.08;53.77;99977.88;5051933;28;20026;-86
2024/04/18 14:15:48;;;;;;;4.10;1.10;;;;;;;17.15;53.56;99973.75;5051796;28;20018;-86
2024/04/18 14:21:00;;;;;;;4.55;1.17;;;;;;;17.20;52.76;99963.59;5039346;28;20441;-86
2024/04/18 14:23:26;;;;;;;2.80;1.13;;;;;;;17.14;52.40;99966.75;5023618;28;20012;-87
2024/04/18 14:25:53;;;;;;;4.05;1.20;;;;;;;17.03;52.26;99960.47;5019521;28;20088;-86
2024/04/18 14:28:23;;;;;;;5.88;1.20;;;;;;;16.92;52.52;99956.00;5020671;28;20055;-86
2024/04/18 14:30:59;;;;;;;2.00;0.93;;;;;;;16.79;52.13;99960.63;5020813;28;20016;-86
2024/04/18 14:33:26;;;;;;;3.28;1.35;;;;;;;16.67;52.46;99968.59;5019446;28;20027;-86
2024/04/18 14:35:53;;;;;;;2.80;1.20;;;;;;;16.59;52.46;99970.19;5020731;28;20008;-86
2024/04/18 14:38:23;;;;;;;2.08;1.20;;;;;;;16.51;51.81;99968.13;4993923;28;20012;-86
2024/04/18 14:40:53;;;;;;;4.72;1.13;;;;;;;16.52;54.05;99983.94;5018822;28;20016;-86
2024/04/18 14:43:36;;;;;;;2.53;1.08;;;;;;;16.62;54.78;99981.41;5019174;28;20008;-86
2024/04/18 14:46:03;;;;;;;3.13;1.20;;;;;;;16.73;54.48;99985.03;5020639;28;20074;-87
2024/04/18 14:48:33;;;;;;;1.83;0.90;;;;;;;16.82;53.96;99981.63;5018729;28;20410;-87
2024/04/18 14:51:00;;;;;;;4.32;1.38;;;;;;;16.87;53.56;99982.13;5018004;28;20487;-87
2024/04/18 14:53:26;;;;;;;3.28;1.17;;;;;;;16.89;53.74;99977.53;5018983;28;20012;-86
2024/04/18 14:55:53;;;;;;;1.70;0.93;;;;;;;16.89;53.38;99979.31;5018653;28;20476;-86
2024/04/18 14:58:20;;;;;;;3.00;0.98;;;;;;;16.83;52.75;99980.69;5019423;28;20012;-86
2024/04/18 15:00:49;;;;;;;4.53;1.00;;;;;;;16.75;52.53;99991.06;5019474;28;20012;-86
2024/04/18 15:03:16;;;;;;;3.03;0.90;;;;;;;16.66;52.89;99984.66;5021249;28;20019;-87
2024/04/18 15:05:56;;;;;;;5.28;1.27;;;;;;;16.49;49.99;99978.88;5019527;28;20022;-86
2024/04/18 15:08:23;;;;;;;3.38;1.00;;;;;;;16.42;52.76;99977.69;5019758;28;20406;-86
2024/04/18 15:10:50;;;;;;;2.50;1.00;;;;;;;16.28;52.71;99974.28;5020998;28;20027;-86
2024/04/18 15:13:17;;;;;;;4.10;1.50;;;;;;;16.15;53.01;99974.38;4994872;28;20022;-86
2024/04/18 15:15:44;;;;;;;2.50;1.20;;;;;;;16.00;53.29;99976.41;5019634;28;20848;-87
2024/04/18 15:18:12;;;;;;;2.78;1.10;;;;;;;15.87;53.23;99973.81;5028000;28;20095;-86
2024/04/18 15:20:39;;;;;;;2.88;1.10;;;;;;;15.75;53.57;99975.56;5022897;28;20472;-86
2024/04/18 15:23:06;;;;;;;1.98;0.90;;;;;;;15.63;53.99;99968.56;5020989;28;20066;-86
2024/04/18 15:25:33;;;;;;;5.50;1.42;;;;;;;15.60;55.73;99974.94;5019232;28;20020;-86
2024/04/18 15:27:59;;;;;;;3.30;1.20;;;;;;;15.63;56.25;99974.69;5019892;28;20019;-86
2024/04/18 15:30:26;;;;;;;4.55;1.30;;;;;;;15.77;57.15;99973.66;5019511;28;20080;-86
2024/04/18 15:32:53;;;;;;;3.03;1.40;;;;;;;15.96;57.43;99972.28;5020280;28;20081;-87
2024/04/18 15:35:20;;;;;;;4.00;1.10;;;;;;;16.15;57.12;99978.88;5020357;28;20045;-86
2024/04/18 15:37:46;;;;;;;2.72;1.00;;;;;;;16.31;56.29;99972.34;5019796;28;20018;-86
2024/04/18 15:40:13;;;;;;;1.60;0.77;;;;;;;16.42;55.75;99977.69;5021663;28;20027;-86
2024/04/18 15:42:43;;;;;;;4.65;1.35;;;;;;;16.48;55.70;99971.88;5020328;28;20004;-86
2024/04/18 15:45:10;;;;;;;5.00;1.20;;;;;;;16.51;55.48;99970.78;5020449;28;20027;-86
2024/04/18 15:47:36;;;;;;;3.38;1.20;;;;;;;16.49;55.01;99968.22;5020192;28;20012;-86
2024/04/18 15:50:03;;;;;;;4.25;1.48;;;;;;;16.42;54.57;99969.72;5019257;28;20044;-86
2024/04/18 15:52:32;;;;;;;3.72;1.55;;;;;;;16.34;54.19;99966.81;5021293;28;20070;-86
2024/04/18 15:54:59;;;;;;;5.18;1.30;;;;;;;16.22;54.50;99958.81;5019447;28;20024;-86
2024/04/18 15:57:41;;;;;;;5.13;1.50;;;;;;;16.14;54.86;99967.38;5020035;28;20018;-86
2024/04/18 16:00:08;;;;;;;3.67;1.20;;;;;;;16.05;54.96;99967.25;5021343;28;20030;-86
2024/04/18 16:02:35;;;;;;;4.47;0.98;;;;;;;15.98;54.74;99966.88;5019349;28;20023;-87
2024/04/18 16:05:02;;;;;;;3.97;1.45;;;;;;;15.89;54.58;99976.38;5019922;28;20008;-86
2024/04/18 16:07:29;;;;;;;5.03;1.08;;;;;;;15.79;54.54;99968.25;5046325;28;20490;-87
2024/04/18 16:09:55;;;;;;;4.40;1.40;;;;;;;15.70;54.82;99969.78;5022136;28;20008;-87
2024/04/18 16:12:22;;;;;;;2.85;1.20;;;;;;;15.64;55.46;99965.75;5020831;28;20089;-86
2024/04/18 16:14:49;;;;;;;5.22;1.30;;;;;;;15.60;55.49;99964.34;5021682;28;20337;-86
2024/04/18 16:17:18;;;;;;;2.30;1.00;;;;;;;15.56;55.68;99965.53;4994125;28;20019;-88
2024/04/18 16:19:47;;;;;;;5.25;1.50;;;;;;;15.53;54.70;99968.41;5021729;28;20011;-86
2024/04/18 16:22:14;;;;;;;2.10;1.02;;;;;;;15.50;55.07;99958.00;5019230;28;20089;-86
2024/04/18 16:24:41;;;;;;;4.60;1.00;;;;;;;15.46;55.51;99962.69;5019691;28;20024;-86
2024/04/18 16:27:07;;;;;;;2.45;1.00;;;;;;;15.44;55.33;99961.13;5019433;28;20020;-86
2024/04/18 16:29:34;;;;;;;3.22;1.10;;;;;;;15.40;55.43;99957.00;5019308;28;20016;-86
2024/04/18 16:32:01;;;;;;;2.70;0.90;;;;;;;15.37;54.88;99947.47;5018428;28;20016;-86
2024/04/18 16:34:27;;;;;;;2.70;0.90;;;;;;;15.33;55.32;99951.31;5017922;28;20008;-86
2024/04/18 16:36:54;;;;;;;3.33;1.02;;;;;;;15.29;55.37;99949.84;5019888;28;20012;-88
2024/04/18 16:39:37;;;;;;;2.85;1.13;;;;;;;15.23;54.89;99948.50;5019094;28;20153;-86
2024/04/18 16:42:04;;;;;;;4.97;1.25;;;;;;;15.14;55.06;99950.00;5019731;28;20012;-88
2024/04/18 16:44:31;;;;;;;2.92;1.30;;;;;;;15.04;55.18;99947.19;5019830;28;20018;-85
2024/04/18 16:46:57;;;;;;;3.25;0.95;;;;;;;14.92;55.50;99948.91;5017926;28;20501;-85
2024/04/18 16:49:24;;;;;;;3.22;1.10;;;;;;;14.82;55.82;99953.19;5019845;28;20419;-85
2024/04/18 16:51:51;;;;;;;2.58;1.15;;;;;;;14.72;56.20;99951.16;5019237;28;20543;-85
2024/04/18 16:54:17;;;;;;;2.97;1.10;;;;;;;14.65;56.04;99947.25;5020052;28;20008;-85
2024/04/18 16:56:44;;;;;;;6.20;1.35;;;;;;;14.57;56.08;99949.59;5018520;28;20016;-85
2024/04/18 16:59:12;;;;;;;2.78;1.45;;;;;;;14.49;56.53;99950.16;5019237;28;20012;-85